createdAt,value
2023-05-07T00:00:27.018Z,5.60
2023-05-07T00:02:54.295Z,5.40
2023-05-07T00:05:21.874Z,5.70
2023-05-07T00:07:49.335Z,5.70
2023-05-07T00:10:20.267Z,6.10
2023-05-07T00:12:47.561Z,5.20
2023-05-07T00:15:14.712Z,5.50
2023-05-07T00:17:41.828Z,4.70
2023-05-07T00:20:09.752Z,4.40
2023-05-07T00:22:37.006Z,5.70
2023-05-07T00:25:06.329Z,5.60
2023-05-07T00:27:33.631Z,5.00
2023-05-07T00:30:01.912Z,5.20
2023-05-07T00:32:29.223Z,5.60
2023-05-07T00:34:57.030Z,5.00
2023-05-07T00:37:24.197Z,5.10
2023-05-07T00:39:51.742Z,5.20
2023-05-07T00:42:20.014Z,4.80
2023-05-07T00:44:47.662Z,5.30
2023-05-07T00:47:15.238Z,3.60
2023-05-07T00:49:46.334Z,5.10
2023-05-07T00:52:15.574Z,4.10
2023-05-07T00:54:42.897Z,3.80
2023-05-07T00:57:14.169Z,4.20
2023-05-07T00:59:43.035Z,3.60
2023-05-07T01:02:10.195Z,3.90
2023-05-07T01:04:38.072Z,4.30
2023-05-07T01:07:06.010Z,3.10
2023-05-07T01:09:33.708Z,3.80
2023-05-07T01:12:02.255Z,3.40
2023-05-07T01:14:30.881Z,3.10
2023-05-07T01:16:58.264Z,3.30
2023-05-07T01:19:25.809Z,3.60
2023-05-07T01:21:53.037Z,3.60
2023-05-07T01:24:20.856Z,2.70
2023-05-07T01:26:47.963Z,3.70
2023-05-07T01:29:16.661Z,3.30
2023-05-07T01:31:44.668Z,3.40
2023-05-07T01:34:12.356Z,2.80
2023-05-07T01:36:41.162Z,2.90
2023-05-07T01:39:09.053Z,4.40
2023-05-07T01:41:36.460Z,3.20
2023-05-07T01:44:04.518Z,3.10
2023-05-07T01:46:32.554Z,3.70
2023-05-07T01:49:03.151Z,2.50
2023-05-07T01:51:31.080Z,3.30
2023-05-07T01:53:59.729Z,2.90
2023-05-07T01:56:27.075Z,2.80
2023-05-07T01:58:54.336Z,2.50
2023-05-07T02:01:21.792Z,3.10
2023-05-07T02:03:49.877Z,2.90
2023-05-07T02:06:20.909Z,2.20
2023-05-07T02:08:48.595Z,3.00
2023-05-07T02:11:16.567Z,3.00
2023-05-07T02:13:43.843Z,3.00
2023-05-07T02:16:12.040Z,3.00
2023-05-07T02:18:39.897Z,2.70
2023-05-07T02:21:07.085Z,3.00
2023-05-07T02:23:34.289Z,3.00
2023-05-07T02:26:01.895Z,3.10
2023-05-07T02:28:30.144Z,2.50
2023-05-07T02:31:05.586Z,2.50
2023-05-07T02:33:33.124Z,2.90
2023-05-07T02:36:10.391Z,3.60
2023-05-07T02:38:42.173Z,3.40
2023-05-07T02:41:09.475Z,3.00
2023-05-07T02:43:36.670Z,3.00
2023-05-07T02:46:08.604Z,2.80
2023-05-07T02:48:38.283Z,2.80
2023-05-07T02:51:06.648Z,3.30
2023-05-07T02:53:34.338Z,3.10
2023-05-07T02:56:01.999Z,3.00
2023-05-07T02:58:29.846Z,2.90
2023-05-07T03:01:00.319Z,3.20
2023-05-07T03:03:33.121Z,3.00
2023-05-07T03:06:00.254Z,3.20
2023-05-07T03:08:27.524Z,3.40
2023-05-07T03:10:54.812Z,3.30
2023-05-07T03:13:23.241Z,2.90
2023-05-07T03:15:52.727Z,2.70
2023-05-07T03:18:20.294Z,3.00
2023-05-07T03:20:49.104Z,2.90
2023-05-07T03:23:16.659Z,2.60
2023-05-07T03:25:43.846Z,3.20
2023-05-07T03:28:12.077Z,3.00
2023-05-07T03:30:43.892Z,3.10
2023-05-07T03:33:11.090Z,2.90
2023-05-07T03:35:38.491Z,3.20
2023-05-07T03:38:06.236Z,3.40
2023-05-07T03:40:35.305Z,3.40
2023-05-07T03:43:03.823Z,3.10
2023-05-07T03:45:31.389Z,3.20
2023-05-07T03:48:08.376Z,2.80
2023-05-07T03:50:35.670Z,3.20
2023-05-07T03:53:02.870Z,3.20
2023-05-07T03:55:30.789Z,3.20
2023-05-07T03:57:59.319Z,3.90
2023-05-07T04:00:27.257Z,3.70
2023-05-07T04:02:54.412Z,3.90
2023-05-07T04:05:26.243Z,3.30
2023-05-07T04:07:57.336Z,3.90
2023-05-07T04:10:29.413Z,2.80
2023-05-07T04:12:58.389Z,3.30
2023-05-07T04:15:25.914Z,3.10
2023-05-07T04:17:53.236Z,3.70
2023-05-07T04:20:21.786Z,3.60
2023-05-07T04:22:52.627Z,4.20
2023-05-07T04:25:19.778Z,3.10
2023-05-07T04:27:47.603Z,3.40
2023-05-07T04:30:15.086Z,3.20
2023-05-07T04:32:42.551Z,4.00
2023-05-07T04:35:09.907Z,3.60
2023-05-07T04:37:37.532Z,3.80
2023-05-07T04:40:06.580Z,3.10
2023-05-07T04:42:33.825Z,3.40
2023-05-07T04:45:03.199Z,3.20
2023-05-07T04:47:31.557Z,3.50
2023-05-07T04:49:59.377Z,3.60
2023-05-07T04:52:27.410Z,3.10
2023-05-07T04:54:54.704Z,3.40
2023-05-07T04:57:22.293Z,3.70
2023-05-07T04:59:49.394Z,3.50
2023-05-07T05:02:18.278Z,3.70
2023-05-07T05:04:47.393Z,3.40
2023-05-07T05:07:14.632Z,3.70
2023-05-07T05:09:42.029Z,3.60
2023-05-07T05:12:10.309Z,3.90
2023-05-07T05:14:37.975Z,3.60
2023-05-07T05:17:05.349Z,3.40
2023-05-07T05:19:32.589Z,3.90
2023-05-07T05:22:02.233Z,3.70
2023-05-07T05:24:30.145Z,4.20
2023-05-07T05:26:57.517Z,3.70
2023-05-07T05:29:24.982Z,3.80
2023-05-07T05:31:52.173Z,3.10
2023-05-07T05:34:20.881Z,3.20
2023-05-07T05:36:48.264Z,3.10
2023-05-07T05:39:16.658Z,3.30
2023-05-07T05:41:47.040Z,3.30
2023-05-07T05:44:15.159Z,3.10
2023-05-07T05:46:42.827Z,3.30
2023-05-07T05:49:10.527Z,3.40
2023-05-07T05:51:40.101Z,2.90
2023-05-07T05:54:07.405Z,3.40
2023-05-07T05:56:34.889Z,3.50
2023-05-07T05:59:02.809Z,3.10
2023-05-07T06:01:30.236Z,3.40
2023-05-07T06:04:00.104Z,3.70
2023-05-07T06:06:28.604Z,4.10
2023-05-07T06:08:55.798Z,3.50
2023-05-07T06:11:26.668Z,4.00
2023-05-07T06:13:56.036Z,3.10
2023-05-07T06:16:28.222Z,3.50
2023-05-07T06:19:04.310Z,2.90
2023-05-07T06:21:32.065Z,2.70
2023-05-07T06:23:59.215Z,2.80
2023-05-07T06:26:26.635Z,3.00
2023-05-07T06:28:54.119Z,3.00
2023-05-07T06:31:24.272Z,2.80
2023-05-07T06:33:57.727Z,2.60
2023-05-07T06:36:29.737Z,3.80
2023-05-07T06:38:57.867Z,2.20
2023-05-07T06:41:24.973Z,2.80
2023-05-07T06:43:52.617Z,2.60
2023-05-07T06:46:40.095Z,2.50
2023-05-07T06:49:07.293Z,3.10
2023-05-07T06:51:35.061Z,2.20
2023-05-07T06:54:05.595Z,2.00
2023-05-07T06:56:34.027Z,2.70
2023-05-07T06:59:02.636Z,2.40
2023-05-07T07:01:32.941Z,2.20
2023-05-07T07:04:01.717Z,3.60
2023-05-07T07:06:29.908Z,2.80
2023-05-07T07:08:57.235Z,2.80
2023-05-07T07:11:24.786Z,2.70
2023-05-07T07:13:52.054Z,2.50
2023-05-07T07:16:19.970Z,2.50
2023-05-07T07:18:47.495Z,2.70
2023-05-07T07:21:14.799Z,1.70
2023-05-07T07:23:42.045Z,2.30
2023-05-07T07:26:11.169Z,2.10
2023-05-07T07:28:45.410Z,2.30
2023-05-07T07:31:13.653Z,2.10
2023-05-07T07:33:41.839Z,1.50
2023-05-07T07:36:10.852Z,1.50
2023-05-07T07:38:41.730Z,1.80
2023-05-07T07:41:12.190Z,1.70
2023-05-07T07:43:39.395Z,1.60
2023-05-07T07:46:10.934Z,2.00
2023-05-07T07:48:39.127Z,1.90
2023-05-07T07:51:06.990Z,1.90
2023-05-07T07:53:34.696Z,1.30
2023-05-07T07:56:05.028Z,1.70
2023-05-07T07:58:33.926Z,1.60
2023-05-07T08:01:04.171Z,1.60
2023-05-07T08:03:33.710Z,1.80
2023-05-07T08:06:01.933Z,1.70
2023-05-07T08:08:32.299Z,3.00
2023-05-07T08:10:59.384Z,1.50
2023-05-07T08:13:30.698Z,1.80
2023-05-07T08:15:58.542Z,1.40
2023-05-07T08:18:26.888Z,2.20
2023-05-07T08:20:55.122Z,2.40
2023-05-07T08:23:23.603Z,2.00
2023-05-07T08:25:50.930Z,1.60
2023-05-07T08:28:18.737Z,2.10
2023-05-07T08:30:46.520Z,1.90
2023-05-07T08:33:13.877Z,1.60
2023-05-07T08:35:46.218Z,1.70
2023-05-07T08:38:26.770Z,1.60
2023-05-07T08:40:56.015Z,1.50
2023-05-07T08:43:24.309Z,1.60
2023-05-07T08:46:10.108Z,2.00
2023-05-07T08:48:38.773Z,1.90
2023-05-07T08:51:14.099Z,1.30
2023-05-07T08:53:45.967Z,1.70
2023-05-07T08:56:16.730Z,1.80
2023-05-07T08:58:44.988Z,1.50
2023-05-07T09:01:15.879Z,1.50
2023-05-07T09:03:47.169Z,1.50
2023-05-07T09:06:15.486Z,1.70
2023-05-07T09:08:56.871Z,2.00
2023-05-07T09:11:26.940Z,1.80
2023-05-07T09:13:57.349Z,1.90
2023-05-07T09:16:25.284Z,1.70
2023-05-07T09:18:53.530Z,2.20
2023-05-07T09:21:24.022Z,1.70
2023-05-07T09:23:53.050Z,1.30
2023-05-07T09:26:22.986Z,2.00
2023-05-07T09:28:50.131Z,1.60
2023-05-07T09:31:20.346Z,2.00
2023-05-07T09:33:49.105Z,2.10
2023-05-07T09:36:17.280Z,1.60
2023-05-07T09:38:45.155Z,1.90
2023-05-07T09:41:13.966Z,1.50
2023-05-07T09:43:50.080Z,1.60
2023-05-07T09:46:28.432Z,1.50
2023-05-07T09:49:02.736Z,1.50
2023-05-07T09:51:35.714Z,2.30
2023-05-07T09:54:04.893Z,1.50
2023-05-07T09:56:33.604Z,1.80
2023-05-07T09:59:01.814Z,1.90
2023-05-07T10:01:32.380Z,1.50
2023-05-07T10:04:00.035Z,1.70
2023-05-07T10:06:30.834Z,1.90
2023-05-07T10:08:58.061Z,2.00
2023-05-07T10:11:25.388Z,1.80
2023-05-07T10:13:52.661Z,1.90
2023-05-07T10:16:20.300Z,1.70
2023-05-07T10:18:49.716Z,1.50
2023-05-07T10:21:20.981Z,1.60
2023-05-07T10:23:59.644Z,1.90
2023-05-07T10:26:28.556Z,1.70
2023-05-07T10:29:05.586Z,1.90
2023-05-07T10:32:08.999Z,2.40
2023-05-07T10:34:40.433Z,3.70
2023-05-07T10:37:08.167Z,2.30
2023-05-07T10:39:36.594Z,2.50
2023-05-07T10:42:10.926Z,2.30
2023-05-07T10:44:38.763Z,1.80
2023-05-07T10:47:13.042Z,1.70
2023-05-07T10:49:47.949Z,2.30
2023-05-07T10:52:40.636Z,1.80
2023-05-07T10:55:21.187Z,1.80
2023-05-07T10:58:32.405Z,1.70
2023-05-07T11:02:21.235Z,2.40
2023-05-07T11:05:26.886Z,1.90
2023-05-07T11:08:25.083Z,1.70
2023-05-07T11:11:00.544Z,2.10
2023-05-07T11:13:47.381Z,1.80
2023-05-07T11:16:26.091Z,1.80
2023-05-07T11:19:01.599Z,2.30
2023-05-07T11:21:38.293Z,1.90
2023-05-07T11:24:28.356Z,2.70
2023-05-07T11:27:16.616Z,2.40
2023-05-07T11:29:47.969Z,2.00
2023-05-07T11:32:15.343Z,3.70
2023-05-07T11:34:57.426Z,4.50
2023-05-07T11:37:38.596Z,3.80
2023-05-07T11:40:12.296Z,2.80
2023-05-07T11:42:47.277Z,1.90
2023-05-07T11:45:14.800Z,2.40
2023-05-07T11:47:43.012Z,2.10
2023-05-07T11:50:11.739Z,1.80
2023-05-07T11:52:40.451Z,1.80
2023-05-07T11:55:09.269Z,1.50
2023-05-07T11:57:36.725Z,1.50
2023-05-07T12:00:05.960Z,1.50
2023-05-07T12:02:48.369Z,1.70
2023-05-07T12:05:19.428Z,1.30
2023-05-07T12:07:56.764Z,1.80
2023-05-07T12:10:28.895Z,1.90
2023-05-07T12:12:57.675Z,2.00
2023-05-07T12:15:25.373Z,1.60
2023-05-07T12:17:58.177Z,1.40
2023-05-07T12:20:32.034Z,1.20
2023-05-07T12:23:14.654Z,1.50
2023-05-07T12:25:52.012Z,2.00
2023-05-07T12:28:30.924Z,1.80
2023-05-07T12:31:02.274Z,2.20
2023-05-07T12:33:35.031Z,1.90
2023-05-07T12:36:05.071Z,2.20
2023-05-07T12:38:39.195Z,2.10
2023-05-07T12:42:19.514Z,1.80
2023-05-07T12:44:54.758Z,1.70
2023-05-07T12:47:26.975Z,2.40
2023-05-07T12:49:56.063Z,1.90
2023-05-07T12:52:23.163Z,2.10
2023-05-07T12:54:50.309Z,2.10
2023-05-07T12:57:17.427Z,3.00
2023-05-07T12:59:44.584Z,2.90
2023-05-07T13:02:11.926Z,2.50
2023-05-07T13:04:41.651Z,2.30
2023-05-07T13:07:10.101Z,2.10
2023-05-07T13:09:38.335Z,2.20
2023-05-07T13:12:05.958Z,2.30
2023-05-07T13:14:33.161Z,2.70
2023-05-07T13:17:00.448Z,2.10
2023-05-07T13:19:31.591Z,5.10
2023-05-07T13:21:59.276Z,2.10
2023-05-07T13:24:29.694Z,1.80
2023-05-07T13:27:00.777Z,1.90
2023-05-07T13:29:31.301Z,2.00
2023-05-07T13:31:58.626Z,2.50
2023-05-07T13:34:25.906Z,3.10
2023-05-07T13:36:53.084Z,3.00
2023-05-07T13:39:20.280Z,3.00
2023-05-07T13:41:47.504Z,2.20
2023-05-07T13:44:14.622Z,1.90
2023-05-07T13:46:41.668Z,2.50
2023-05-07T13:49:08.842Z,1.80
2023-05-07T13:51:36.419Z,3.10
2023-05-07T13:54:04.270Z,1.60
2023-05-07T13:56:34.356Z,2.00
2023-05-07T13:59:03.405Z,2.40
2023-05-07T14:01:33.752Z,2.30
2023-05-07T14:04:14.654Z,2.90
2023-05-07T14:06:41.995Z,2.60
2023-05-07T14:09:09.292Z,2.20
2023-05-07T14:11:36.507Z,2.30
2023-05-07T14:14:04.998Z,2.30
2023-05-07T14:16:32.344Z,2.30
2023-05-07T14:19:02.608Z,2.10
2023-05-07T14:21:29.778Z,2.00
2023-05-07T14:23:58.738Z,2.60
2023-05-07T14:26:28.215Z,2.70
2023-05-07T14:28:58.546Z,3.50
2023-05-07T14:31:26.162Z,2.60
2023-05-07T14:33:54.856Z,2.60
2023-05-07T14:36:25.055Z,2.70
2023-05-07T14:38:52.233Z,2.20
2023-05-07T14:41:19.484Z,2.60
2023-05-07T14:43:51.157Z,3.30
2023-05-07T14:46:19.112Z,3.00
2023-05-07T14:48:48.196Z,2.40
2023-05-07T14:51:15.335Z,2.10
2023-05-07T14:53:44.171Z,1.70
2023-05-07T14:56:11.369Z,1.90
2023-05-07T14:58:39.268Z,2.70
2023-05-07T15:01:07.397Z,3.40
2023-05-07T15:03:39.171Z,2.20
2023-05-07T15:06:07.460Z,2.20
2023-05-07T15:08:35.625Z,2.20
2023-05-07T15:11:02.985Z,4.00
2023-05-07T15:13:30.335Z,2.10
2023-05-07T15:15:57.727Z,2.10
2023-05-07T15:18:24.856Z,2.40
2023-05-07T15:20:52.069Z,2.90
2023-05-07T15:23:21.318Z,2.80
2023-05-07T15:25:50.467Z,3.10
2023-05-07T15:28:22.114Z,3.00
2023-05-07T15:30:49.353Z,2.00
2023-05-07T15:33:17.484Z,1.90
2023-05-07T15:35:45.029Z,2.10
2023-05-07T15:38:14.304Z,2.70
2023-05-07T15:40:44.233Z,2.90
2023-05-07T15:43:11.615Z,2.40
2023-05-07T15:45:45.216Z,2.60
2023-05-07T15:48:12.832Z,2.30
2023-05-07T15:50:40.589Z,2.10
2023-05-07T15:53:08.542Z,2.30
2023-05-07T15:55:35.659Z,2.70
2023-05-07T15:58:04.836Z,2.40
2023-05-07T16:00:31.967Z,2.70
2023-05-07T16:03:01.134Z,3.70
2023-05-07T16:05:29.593Z,3.40
2023-05-07T16:07:57.453Z,3.80
2023-05-07T16:10:24.581Z,3.70
2023-05-07T16:12:54.000Z,3.60
2023-05-07T16:15:23.160Z,3.50
2023-05-07T16:17:58.465Z,3.60
2023-05-07T16:20:32.567Z,3.10
2023-05-07T16:23:01.487Z,3.70
2023-05-07T16:25:28.653Z,3.60
2023-05-07T16:27:58.527Z,2.90
2023-05-07T16:30:27.734Z,3.10
2023-05-07T16:32:56.182Z,3.20
2023-05-07T16:35:23.449Z,15.60
2023-05-07T16:37:51.226Z,5.70
2023-05-07T16:40:18.916Z,4.60
2023-05-07T16:42:46.084Z,4.90
2023-05-07T16:45:25.410Z,4.40
2023-05-07T16:47:58.067Z,4.60
2023-05-07T16:50:27.529Z,4.20
2023-05-07T16:52:57.390Z,4.50
2023-05-07T16:55:25.582Z,4.50
2023-05-07T16:57:53.205Z,4.10
2023-05-07T17:00:21.057Z,3.80
2023-05-07T17:02:49.614Z,4.00
2023-05-07T17:05:17.346Z,3.70
2023-05-07T17:07:44.631Z,3.50
2023-05-07T17:10:14.331Z,5.00
2023-05-07T17:12:41.600Z,4.20
2023-05-07T17:15:11.629Z,3.90
2023-05-07T17:17:40.289Z,5.10
2023-05-07T17:20:08.523Z,4.20
2023-05-07T17:22:36.220Z,4.20
2023-05-07T17:25:04.838Z,4.10
2023-05-07T17:27:31.945Z,4.90
2023-05-07T17:29:59.363Z,4.40
2023-05-07T17:32:28.006Z,4.70
2023-05-07T17:34:55.734Z,5.80
2023-05-07T17:37:23.831Z,5.40
2023-05-07T17:39:52.810Z,5.90
2023-05-07T17:42:19.861Z,4.90
2023-05-07T17:44:48.102Z,4.70
2023-05-07T17:47:15.333Z,4.50
2023-05-07T17:49:42.726Z,4.00
2023-05-07T17:52:10.449Z,3.20
2023-05-07T17:54:37.848Z,3.70
2023-05-07T17:57:08.940Z,3.40
2023-05-07T17:59:37.268Z,3.40
2023-05-07T18:02:06.227Z,3.40
2023-05-07T18:04:34.818Z,3.50
2023-05-07T18:07:02.481Z,3.60
2023-05-07T18:09:32.015Z,4.90
2023-05-07T18:12:00.659Z,4.20
2023-05-07T18:14:31.787Z,5.20
2023-05-07T18:16:59.255Z,4.70
2023-05-07T18:19:28.489Z,5.70
2023-05-07T18:21:58.041Z,3.80
2023-05-07T18:24:28.760Z,4.50
2023-05-07T18:26:58.593Z,5.10
2023-05-07T18:29:28.762Z,4.30
2023-05-07T18:31:58.458Z,4.90
2023-05-07T18:34:26.588Z,4.50
2023-05-07T18:36:56.813Z,4.10
2023-05-07T18:39:24.505Z,7.30
2023-05-07T18:41:53.299Z,3.70
2023-05-07T18:44:20.695Z,3.70
2023-05-07T18:46:48.977Z,3.50
2023-05-07T18:49:16.221Z,4.00
2023-05-07T18:52:03.440Z,3.30
2023-05-07T18:54:31.979Z,4.00
2023-05-07T18:57:00.392Z,3.50
2023-05-07T18:59:30.613Z,3.60
2023-05-07T19:01:57.762Z,4.30
2023-05-07T19:04:25.074Z,3.80
2023-05-07T19:06:52.681Z,4.00
2023-05-07T19:09:20.404Z,4.20
2023-05-07T19:11:47.613Z,4.80
2023-05-07T19:14:14.722Z,3.50
2023-05-07T19:16:41.884Z,3.50
2023-05-07T19:19:09.476Z,3.90
2023-05-07T19:21:36.669Z,4.70
2023-05-07T19:24:03.850Z,4.30
2023-05-07T19:26:31.009Z,3.90
2023-05-07T19:31:30.656Z,3.70
2023-05-07T19:33:59.725Z,3.20
2023-05-07T19:36:27.111Z,3.60
2023-05-07T19:38:55.289Z,3.80
2023-05-07T19:41:22.474Z,3.30
2023-05-07T19:43:49.792Z,4.00
2023-05-07T19:46:17.119Z,3.60
2023-05-07T19:48:57.029Z,3.40
2023-05-07T19:51:29.655Z,4.10
2023-05-07T19:53:56.802Z,3.90
2023-05-07T19:56:23.985Z,3.90
2023-05-07T19:58:52.138Z,3.90
2023-05-07T20:01:19.342Z,5.70
2023-05-07T20:03:46.824Z,3.40
2023-05-07T20:06:14.152Z,5.60
2023-05-07T20:08:43.593Z,4.40
2023-05-07T20:11:13.716Z,3.80
2023-05-07T20:13:41.360Z,4.50
2023-05-07T20:16:12.377Z,4.70
2023-05-07T20:18:39.625Z,3.70
2023-05-07T20:21:07.963Z,3.30
2023-05-07T20:23:35.126Z,3.70
2023-05-07T20:26:02.403Z,4.10
2023-05-07T20:28:30.508Z,3.20
2023-05-07T20:31:35.393Z,3.80
2023-05-07T20:34:04.043Z,3.50
2023-05-07T20:36:44.663Z,3.60
2023-05-07T20:39:16.287Z,3.80
2023-05-07T20:41:44.549Z,3.80
2023-05-07T20:44:11.891Z,3.20
2023-05-07T20:46:40.066Z,3.80
2023-05-07T20:49:09.314Z,3.50
2023-05-07T20:51:37.147Z,3.40
2023-05-07T20:54:09.298Z,3.40
2023-05-07T20:56:36.611Z,4.10
2023-05-07T20:59:04.211Z,3.70
2023-05-07T21:01:31.519Z,4.30
2023-05-07T21:03:58.890Z,3.60
2023-05-07T21:06:26.849Z,4.30
2023-05-07T21:08:54.524Z,3.60
2023-05-07T21:11:23.127Z,3.30
2023-05-07T21:13:52.419Z,3.60
2023-05-07T21:16:20.627Z,3.70
2023-05-07T21:18:49.233Z,3.40
2023-05-07T21:21:17.866Z,2.70
2023-05-07T21:23:45.083Z,3.00
2023-05-07T21:26:18.213Z,2.60
2023-05-07T21:28:45.614Z,3.10
2023-05-07T21:31:13.116Z,3.00
2023-05-07T21:33:40.572Z,3.80
2023-05-07T21:36:08.546Z,3.90
2023-05-07T21:38:37.370Z,3.00
2023-05-07T21:41:04.644Z,5.50
2023-05-07T21:43:31.998Z,4.60
2023-05-07T21:46:00.697Z,6.60
2023-05-07T21:48:27.887Z,3.40
2023-05-07T21:51:06.112Z,3.00
2023-05-07T21:53:35.707Z,3.60
2023-05-07T21:56:05.443Z,3.70
2023-05-07T21:58:32.870Z,3.20
2023-05-07T22:01:02.396Z,4.10
2023-05-07T22:03:29.787Z,3.90
2023-05-07T22:05:57.271Z,3.60
2023-05-07T22:08:24.764Z,3.70
2023-05-07T22:10:53.352Z,3.90
2023-05-07T22:13:21.524Z,4.70
2023-05-07T22:15:57.604Z,4.80
2023-05-07T22:18:26.589Z,4.40
2023-05-07T22:20:53.980Z,4.80
2023-05-07T22:23:22.537Z,4.40
2023-05-07T22:25:50.287Z,4.60
2023-05-07T22:28:18.259Z,4.90
2023-05-07T22:30:45.720Z,4.50
2023-05-07T22:33:12.860Z,4.40
2023-05-07T22:35:39.976Z,4.10
2023-05-07T22:38:07.993Z,3.40
2023-05-07T22:40:35.213Z,3.40
2023-05-07T22:43:02.689Z,3.20
2023-05-07T22:45:32.131Z,3.80
2023-05-07T22:47:59.634Z,3.60
2023-05-07T22:50:28.584Z,3.30
2023-05-07T22:52:57.227Z,3.30
2023-05-07T22:55:24.530Z,3.60
2023-05-07T22:57:51.748Z,3.80
2023-05-07T23:00:20.353Z,3.90
2023-05-07T23:02:48.002Z,4.10
2023-05-07T23:05:15.531Z,5.30
2023-05-07T23:07:44.093Z,4.10
2023-05-07T23:10:14.550Z,4.30
2023-05-07T23:12:42.889Z,4.10
2023-05-07T23:15:10.876Z,3.70
2023-05-07T23:17:38.316Z,4.00
2023-05-07T23:20:08.162Z,3.80
2023-05-07T23:22:36.494Z,3.70
2023-05-07T23:25:05.077Z,3.70
2023-05-07T23:27:34.158Z,4.20
2023-05-07T23:30:06.686Z,4.00
2023-05-07T23:32:35.012Z,4.00
2023-05-07T23:35:02.279Z,4.50
2023-05-07T23:37:29.450Z,4.90
2023-05-07T23:39:57.834Z,4.20
2023-05-07T23:42:26.538Z,4.30
2023-05-07T23:44:54.050Z,4.00
2023-05-07T23:47:21.993Z,3.60
2023-05-07T23:49:51.440Z,4.20
2023-05-07T23:52:18.917Z,4.70
2023-05-07T23:54:47.489Z,5.30
2023-05-07T23:57:16.546Z,5.30
2023-05-07T23:59:43.749Z,4.90
